createdAt,value
2022-09-13T00:01:43.614Z,80.02
2022-09-13T00:04:13.938Z,80.01
2022-09-13T00:06:44.537Z,79.91
2022-09-13T00:09:14.987Z,79.82
2022-09-13T00:11:45.556Z,79.81
2022-09-13T00:14:15.847Z,80.01
2022-09-13T00:16:46.642Z,79.99
2022-09-13T00:19:17.029Z,79.99
2022-09-13T00:21:47.363Z,79.83
2022-09-13T00:24:18.617Z,79.83
2022-09-13T00:26:49.320Z,79.85
2022-09-13T00:29:20.478Z,79.74
2022-09-13T00:31:51.247Z,79.65
2022-09-13T00:34:22.724Z,79.65
2022-09-13T00:36:54.081Z,79.58
2022-09-13T00:39:24.461Z,79.58
2022-09-13T00:41:54.707Z,79.65
2022-09-13T00:44:59.200Z,79.61
2022-09-13T00:47:39.727Z,79.50
2022-09-13T00:50:18.277Z,79.56
2022-09-13T00:52:57.247Z,79.85
2022-09-13T00:55:32.290Z,80.07
2022-09-13T00:58:09.570Z,80.01
2022-09-13T01:00:41.477Z,79.98
2022-09-13T01:03:16.203Z,80.08
2022-09-13T01:05:52.469Z,80.12
2022-09-13T01:08:23.782Z,80.16
2022-09-13T01:10:58.338Z,80.24
2022-09-13T01:13:32.829Z,80.26
2022-09-13T01:16:03.581Z,80.02
2022-09-13T01:18:34.064Z,80.02
2022-09-13T01:21:49.499Z,80.05
2022-09-13T01:24:51.435Z,79.87
2022-09-13T01:27:49.022Z,79.99
2022-09-13T01:30:24.403Z,80.30
2022-09-13T01:33:10.596Z,80.55
2022-09-13T01:35:54.934Z,80.60
2022-09-13T01:38:41.519Z,80.62
2022-09-13T01:41:28.870Z,80.73
2022-09-13T01:44:08.623Z,80.74
2022-09-13T01:46:47.743Z,81.07
2022-09-13T01:49:23.514Z,81.15
2022-09-13T01:52:01.655Z,80.98
2022-09-13T01:54:38.428Z,81.12
2022-09-13T01:57:15.831Z,81.14
2022-09-13T01:59:51.711Z,81.24
2022-09-13T02:02:28.277Z,81.39
2022-09-13T02:05:05.012Z,81.46
2022-09-13T02:07:41.231Z,81.64
2022-09-13T02:10:17.201Z,81.90
2022-09-13T02:12:50.290Z,81.86
2022-09-13T02:15:24.104Z,81.68
2022-09-13T02:18:01.313Z,81.62
2022-09-13T02:20:35.339Z,81.72
2022-09-13T02:23:10.743Z,81.50
2022-09-13T02:25:42.399Z,81.23
2022-09-13T02:28:19.911Z,81.40
2022-09-13T02:30:55.769Z,81.29
2022-09-13T02:33:31.173Z,81.32
2022-09-13T02:36:06.468Z,81.24
2022-09-13T02:38:45.411Z,81.13
2022-09-13T02:41:21.273Z,81.07
2022-09-13T02:43:56.462Z,81.17
2022-09-13T02:46:42.007Z,81.11
2022-09-13T02:49:19.316Z,81.05
2022-09-13T02:51:56.925Z,80.95
2022-09-13T02:54:34.227Z,80.65
2022-09-13T02:57:10.639Z,80.83
2022-09-13T02:59:41.124Z,80.85
2022-09-13T03:02:15.280Z,80.82
2022-09-13T03:04:47.902Z,80.79
2022-09-13T03:07:18.252Z,80.89
2022-09-13T03:09:53.471Z,81.19
2022-09-13T03:12:56.265Z,80.94
2022-09-13T03:15:43.144Z,81.13
2022-09-13T03:18:24.222Z,81.11
2022-09-13T03:21:07.570Z,81.30
2022-09-13T03:24:03.211Z,81.03
2022-09-13T03:26:43.266Z,81.00
2022-09-13T03:29:27.245Z,81.18
2022-09-13T03:32:10.039Z,80.87
2022-09-13T03:34:51.495Z,81.11
2022-09-13T03:37:32.211Z,80.96
2022-09-13T03:40:11.358Z,81.03
2022-09-13T03:42:47.985Z,80.94
2022-09-13T03:45:23.427Z,80.93
2022-09-13T03:47:55.013Z,81.03
2022-09-13T03:50:27.183Z,81.13
2022-09-13T03:53:02.013Z,81.28
2022-09-13T03:55:33.830Z,81.69
2022-09-13T03:58:07.424Z,81.59
2022-09-13T04:00:38.670Z,81.85
2022-09-13T04:03:09.188Z,81.65
2022-09-13T04:05:39.907Z,82.08
2022-09-13T04:08:10.699Z,82.39
2022-09-13T04:10:41.009Z,82.41
2022-09-13T04:13:11.692Z,82.19
2022-09-13T04:15:44.860Z,82.33
2022-09-13T04:18:15.763Z,82.29
2022-09-13T04:20:54.527Z,82.65
2022-09-13T04:23:25.358Z,82.79
2022-09-13T04:25:55.819Z,82.79
2022-09-13T04:28:26.336Z,83.10
2022-09-13T04:30:56.615Z,83.17
2022-09-13T04:33:27.001Z,83.13
2022-09-13T04:36:04.230Z,83.20
2022-09-13T04:38:37.119Z,83.47
2022-09-13T04:41:07.665Z,83.59
2022-09-13T04:43:37.900Z,83.63
2022-09-13T04:46:08.760Z,83.68
2022-09-13T04:48:39.021Z,83.90
2022-09-13T04:51:09.679Z,83.96
2022-09-13T04:53:39.930Z,83.84
2022-09-13T04:56:11.344Z,84.15
2022-09-13T04:58:42.203Z,84.27
2022-09-13T05:01:13.046Z,84.14
2022-09-13T05:03:43.802Z,84.23
2022-09-13T05:06:17.972Z,84.45
2022-09-13T05:08:55.051Z,84.44
2022-09-13T05:11:26.675Z,84.33
2022-09-13T05:13:58.658Z,84.36
2022-09-13T05:16:30.835Z,84.60
2022-09-13T05:19:02.256Z,84.63
2022-09-13T05:21:33.170Z,84.70
2022-09-13T05:24:03.582Z,84.60
2022-09-13T05:26:33.996Z,84.78
2022-09-13T05:29:04.810Z,84.73
2022-09-13T05:31:37.405Z,84.72
2022-09-13T05:34:10.496Z,84.80
2022-09-13T05:36:41.580Z,84.78
2022-09-13T05:39:48.462Z,84.69
2022-09-13T05:42:09.616Z,84.86
2022-09-13T05:44:39.990Z,84.92
2022-09-13T05:47:10.804Z,84.80
2022-09-13T05:50:01.836Z,84.85
2022-09-13T05:52:32.620Z,85.03
2022-09-13T05:55:03.258Z,84.94
2022-09-13T05:57:33.578Z,84.96
2022-09-13T06:00:06.634Z,84.90
2022-09-13T06:02:37.012Z,84.91
2022-09-13T06:05:08.084Z,84.90
2022-09-13T06:07:40.275Z,85.10
2022-09-13T06:10:12.416Z,84.93
2022-09-13T06:12:43.876Z,84.96
2022-09-13T06:15:14.633Z,84.85
2022-09-13T06:17:44.934Z,84.82
2022-09-13T06:20:15.272Z,84.82
2022-09-13T06:22:47.896Z,84.80
2022-09-13T06:25:18.578Z,84.67
2022-09-13T06:27:50.208Z,84.59
2022-09-13T06:30:20.747Z,84.68
2022-09-13T06:32:50.997Z,84.59
2022-09-13T06:35:21.246Z,84.49
2022-09-13T06:37:51.807Z,84.40
2022-09-13T06:40:25.210Z,84.35
2022-09-13T06:42:55.845Z,84.21
2022-09-13T06:45:26.603Z,84.11
2022-09-13T06:47:57.375Z,84.16
2022-09-13T06:50:27.855Z,84.14
2022-09-13T06:53:01.383Z,84.02
2022-09-13T06:55:31.684Z,83.86
2022-09-13T06:58:02.160Z,83.72
2022-09-13T07:00:32.447Z,83.62
2022-09-13T07:03:02.777Z,83.52
2022-09-13T07:05:33.028Z,83.31
2022-09-13T07:08:04.845Z,83.32
2022-09-13T07:10:35.138Z,83.19
2022-09-13T07:13:05.680Z,83.19
2022-09-13T07:15:38.951Z,83.07
2022-09-13T07:18:09.263Z,83.05
2022-09-13T07:20:39.629Z,82.84
2022-09-13T07:23:13.555Z,82.72
2022-09-13T07:25:45.524Z,82.64
2022-09-13T07:28:15.749Z,82.55
2022-09-13T07:30:46.110Z,82.42
2022-09-13T07:33:16.979Z,82.29
2022-09-13T07:35:47.223Z,82.24
2022-09-13T07:38:18.130Z,82.10
2022-09-13T07:40:57.472Z,81.99
2022-09-13T07:43:28.416Z,81.91
2022-09-13T07:46:06.584Z,81.80
2022-09-13T07:48:39.301Z,81.75
2022-09-13T07:51:11.864Z,81.80
2022-09-13T07:53:43.715Z,81.61
2022-09-13T07:56:15.558Z,81.57
2022-09-13T07:58:49.014Z,81.36
2022-09-13T08:01:22.101Z,81.40
2022-09-13T08:03:55.675Z,81.19
2022-09-13T08:06:29.389Z,81.17
2022-09-13T08:09:01.114Z,81.07
2022-09-13T08:11:33.937Z,80.77
2022-09-13T08:14:05.050Z,80.58
2022-09-13T08:16:35.763Z,80.41
2022-09-13T08:19:12.023Z,80.14
2022-09-13T08:21:43.590Z,79.90
2022-09-13T08:24:46.084Z,79.82
2022-09-13T08:27:19.370Z,79.44
2022-09-13T08:30:09.976Z,79.25
2022-09-13T08:32:40.223Z,79.02
2022-09-13T08:35:13.131Z,78.79
2022-09-13T08:37:43.427Z,78.39
2022-09-13T08:40:14.098Z,78.13
2022-09-13T08:42:55.397Z,77.78
2022-09-13T08:45:25.854Z,77.39
2022-09-13T08:47:58.184Z,77.03
2022-09-13T08:50:32.184Z,76.45
2022-09-13T08:53:14.072Z,76.24
2022-09-13T08:55:52.313Z,75.70
2022-09-13T08:58:50.018Z,75.38
2022-09-13T09:01:33.692Z,74.92
2022-09-13T09:04:15.205Z,74.58
2022-09-13T09:06:46.282Z,74.28
2022-09-13T09:09:20.598Z,73.88
2022-09-13T09:11:55.111Z,73.35
2022-09-13T09:14:32.075Z,72.83
2022-09-13T09:17:06.874Z,72.31
2022-09-13T09:19:41.283Z,71.83
2022-09-13T09:22:17.998Z,71.42
2022-09-13T09:24:48.105Z,70.87
2022-09-13T09:27:21.498Z,70.45
2022-09-13T09:29:58.084Z,70.05
2022-09-13T09:32:52.852Z,69.83
2022-09-13T09:35:38.933Z,69.36
2022-09-13T09:38:26.270Z,68.63
2022-09-13T09:40:56.605Z,68.13
2022-09-13T09:43:33.518Z,67.87
2022-09-13T09:46:07.139Z,67.51
2022-09-13T09:48:44.780Z,67.24
2022-09-13T09:51:19.050Z,67.06
2022-09-13T09:53:54.246Z,66.81
2022-09-13T09:56:29.891Z,66.73
2022-09-13T09:59:00.780Z,66.29
2022-09-13T10:01:33.202Z,65.83
2022-09-13T10:04:19.671Z,65.58
2022-09-13T10:06:50.080Z,65.40
2022-09-13T10:09:22.477Z,65.33
2022-09-13T10:11:56.391Z,65.10
2022-09-13T10:14:48.560Z,64.75
2022-09-13T10:17:23.935Z,64.59
2022-09-13T10:20:01.323Z,64.31
2022-09-13T10:22:33.629Z,64.25
2022-09-13T10:25:22.589Z,64.30
2022-09-13T10:27:57.036Z,64.38
2022-09-13T10:30:37.794Z,64.56
2022-09-13T10:33:18.552Z,64.58
2022-09-13T10:35:54.510Z,64.55
2022-09-13T10:38:30.905Z,64.42
2022-09-13T10:41:05.203Z,64.27
2022-09-13T10:43:36.709Z,64.18
2022-09-13T10:46:19.596Z,64.11
2022-09-13T10:48:56.040Z,64.04
2022-09-13T10:51:36.892Z,64.00
2022-09-13T10:54:26.866Z,63.98
2022-09-13T10:56:57.147Z,63.81
2022-09-13T10:59:29.699Z,63.57
2022-09-13T11:02:39.137Z,63.45
2022-09-13T11:05:27.059Z,63.47
2022-09-13T11:08:17.751Z,63.32
2022-09-13T11:11:02.392Z,63.17
2022-09-13T11:13:44.952Z,63.11
2022-09-13T11:16:29.225Z,62.95
2022-09-13T11:19:21.227Z,62.94
2022-09-13T11:22:06.347Z,62.92
2022-09-13T11:24:51.012Z,62.96
2022-09-13T11:27:30.738Z,62.94
2022-09-13T11:30:12.421Z,62.80
2022-09-13T11:32:58.427Z,62.57
2022-09-13T11:35:49.416Z,62.29
2022-09-13T11:38:35.474Z,62.08
2022-09-13T11:41:19.782Z,62.05
2022-09-13T11:44:06.867Z,61.99
2022-09-13T11:46:45.193Z,61.96
2022-09-13T11:49:35.991Z,61.95
2022-09-13T11:52:16.296Z,61.58
2022-09-13T11:55:03.169Z,61.59
2022-09-13T11:57:39.365Z,61.27
2022-09-13T12:00:21.998Z,61.28
2022-09-13T12:03:02.588Z,61.17
2022-09-13T12:05:39.530Z,61.50
2022-09-13T12:08:19.731Z,61.38
2022-09-13T12:10:52.747Z,61.41
2022-09-13T12:13:27.474Z,61.39
2022-09-13T12:16:02.444Z,61.39
2022-09-13T12:18:39.690Z,61.48
2022-09-13T12:21:13.111Z,61.49
2022-09-13T12:23:54.386Z,61.35
2022-09-13T12:26:30.641Z,61.51
2022-09-13T12:29:06.590Z,61.20
2022-09-13T12:31:36.941Z,61.13
2022-09-13T12:34:13.066Z,61.25
2022-09-13T12:37:10.085Z,61.26
2022-09-13T12:40:10.755Z,61.13
2022-09-13T12:43:21.670Z,61.20
2022-09-13T12:46:12.110Z,61.30
2022-09-13T12:49:12.297Z,61.37
2022-09-13T12:52:04.804Z,61.36
2022-09-13T12:55:10.497Z,61.49
2022-09-13T12:57:56.268Z,61.31
2022-09-13T13:00:29.601Z,61.15
2022-09-13T13:03:13.709Z,61.06
2022-09-13T13:05:48.794Z,60.80
2022-09-13T13:08:29.930Z,60.83
2022-09-13T13:11:08.002Z,60.77
2022-09-13T13:13:41.069Z,60.71
2022-09-13T13:16:27.556Z,60.46
2022-09-13T13:18:59.431Z,60.61
2022-09-13T13:21:39.096Z,60.39
2022-09-13T13:24:43.244Z,60.29
2022-09-13T13:27:48.439Z,60.45
2022-09-13T13:30:53.831Z,60.29
2022-09-13T13:33:32.061Z,59.81
2022-09-13T13:36:26.493Z,59.84
2022-09-13T13:38:57.626Z,60.00
2022-09-13T13:41:45.853Z,59.91
2022-09-13T13:44:52.122Z,59.72
2022-09-13T13:48:05.265Z,59.75
2022-09-13T13:50:39.197Z,59.98
2022-09-13T13:53:36.929Z,59.86
2022-09-13T13:56:20.926Z,59.75
2022-09-13T13:58:55.808Z,59.53
2022-09-13T14:01:37.402Z,59.57
2022-09-13T14:04:40.181Z,59.56
2022-09-13T14:07:47.577Z,59.38
2022-09-13T14:10:24.218Z,59.44
2022-09-13T14:13:21.814Z,59.53
2022-09-13T14:16:05.545Z,59.28
2022-09-13T14:18:52.275Z,59.40
2022-09-13T14:21:28.138Z,59.36
2022-09-13T14:24:17.560Z,59.01
2022-09-13T14:26:49.860Z,59.24
2022-09-13T14:29:22.321Z,59.03
2022-09-13T14:31:54.721Z,59.13
2022-09-13T14:34:29.110Z,59.14
2022-09-13T14:37:04.261Z,59.02
2022-09-13T14:39:36.357Z,59.05
2022-09-13T14:42:15.930Z,59.05
2022-09-13T14:44:48.300Z,58.88
2022-09-13T14:47:28.069Z,58.71
2022-09-13T14:50:06.759Z,58.57
2022-09-13T14:52:40.993Z,58.48
2022-09-13T14:55:19.453Z,58.31
2022-09-13T14:57:58.466Z,58.27
2022-09-13T15:00:29.781Z,58.28
2022-09-13T15:03:03.958Z,58.43
2022-09-13T15:05:38.590Z,58.33
2022-09-13T15:08:28.716Z,58.18
2022-09-13T15:11:02.538Z,58.13
2022-09-13T15:13:33.264Z,58.02
2022-09-13T15:16:03.970Z,58.09
2022-09-13T15:18:37.094Z,58.01
2022-09-13T15:21:16.131Z,57.93
2022-09-13T15:23:52.327Z,57.76
2022-09-13T15:26:25.701Z,57.62
2022-09-13T15:28:59.171Z,57.50
2022-09-13T15:31:32.079Z,57.67
2022-09-13T15:34:25.008Z,57.58
2022-09-13T15:37:11.888Z,57.75
2022-09-13T15:39:56.009Z,57.57
2022-09-13T15:42:26.481Z,57.72
2022-09-13T15:44:57.201Z,57.63
2022-09-13T15:47:27.460Z,57.85
2022-09-13T15:49:58.699Z,57.98
2022-09-13T15:52:28.949Z,58.11
2022-09-13T15:54:59.221Z,58.09
2022-09-13T15:57:31.308Z,58.36
2022-09-13T16:00:06.410Z,58.53
2022-09-13T16:02:37.223Z,58.64
2022-09-13T16:05:08.908Z,58.78
2022-09-13T16:07:40.039Z,58.82
2022-09-13T16:10:15.496Z,58.97
2022-09-13T16:12:46.327Z,59.01
2022-09-13T16:15:17.078Z,59.04
2022-09-13T16:17:47.692Z,59.22
2022-09-13T16:20:18.547Z,59.22
2022-09-13T16:22:48.915Z,59.17
2022-09-13T16:25:19.560Z,59.40
2022-09-13T16:27:49.943Z,59.46
2022-09-13T16:30:22.252Z,59.40
2022-09-13T16:32:52.522Z,59.69
2022-09-13T16:35:27.144Z,59.71
2022-09-13T16:38:00.459Z,59.88
2022-09-13T16:40:30.881Z,60.03
2022-09-13T16:43:01.673Z,60.07
2022-09-13T16:45:31.943Z,60.24
2022-09-13T16:48:02.284Z,60.34
2022-09-13T16:50:34.971Z,60.55
2022-09-13T16:53:05.626Z,60.72
2022-09-13T16:55:36.232Z,60.90
2022-09-13T16:58:06.832Z,60.99
2022-09-13T17:00:37.152Z,61.15
2022-09-13T17:03:07.532Z,61.30
2022-09-13T17:05:37.940Z,61.41
2022-09-13T17:08:08.485Z,61.63
2022-09-13T17:10:41.206Z,61.75
2022-09-13T17:13:11.495Z,62.03
2022-09-13T17:15:42.588Z,62.12
2022-09-13T17:18:13.151Z,62.27
2022-09-13T17:20:48.316Z,62.38
2022-09-13T17:23:19.082Z,62.54
2022-09-13T17:25:50.948Z,62.64
2022-09-13T17:28:21.678Z,62.86
2022-09-13T17:30:52.190Z,62.83
2022-09-13T17:33:22.937Z,62.93
2022-09-13T17:36:02.951Z,63.07
2022-09-13T17:38:33.260Z,63.20
2022-09-13T17:41:06.858Z,63.34
2022-09-13T17:43:38.362Z,63.39
2022-09-13T17:46:12.047Z,63.53
2022-09-13T17:48:42.847Z,63.67
2022-09-13T17:51:15.159Z,63.73
2022-09-13T17:53:48.026Z,63.75
2022-09-13T17:56:21.119Z,63.80
2022-09-13T17:58:51.509Z,63.91
2022-09-13T18:01:22.032Z,63.87
2022-09-13T18:03:54.727Z,63.81
2022-09-13T18:06:25.121Z,63.91
2022-09-13T18:08:56.800Z,63.88
2022-09-13T18:11:27.231Z,63.99
2022-09-13T18:13:57.781Z,64.09
2022-09-13T18:16:29.880Z,64.06
2022-09-13T18:19:01.770Z,64.10
2022-09-13T18:21:32.335Z,64.23
2022-09-13T18:24:02.945Z,64.28
2022-09-13T18:26:34.174Z,64.30
2022-09-13T18:29:06.919Z,64.37
2022-09-13T18:31:38.399Z,64.43
2022-09-13T18:34:11.949Z,64.49
2022-09-13T18:36:43.324Z,64.64
2022-09-13T18:39:17.865Z,64.72
2022-09-13T18:41:48.924Z,64.74
2022-09-13T18:44:20.025Z,64.81
2022-09-13T18:46:51.474Z,64.92
2022-09-13T18:49:21.884Z,65.03
2022-09-13T18:51:52.199Z,65.11
2022-09-13T18:54:22.652Z,65.21
2022-09-13T18:56:54.998Z,65.29
2022-09-13T18:59:25.409Z,65.33
2022-09-13T19:01:56.702Z,65.36
2022-09-13T19:04:27.681Z,65.48
2022-09-13T19:06:58.422Z,65.49
2022-09-13T19:09:29.245Z,65.67
2022-09-13T19:11:59.907Z,65.69
2022-09-13T19:14:32.627Z,65.79
2022-09-13T19:17:04.744Z,65.97
2022-09-13T19:19:35.809Z,66.20
2022-09-13T19:22:06.658Z,66.38
2022-09-13T19:24:38.440Z,66.68
2022-09-13T19:27:09.098Z,66.84
2022-09-13T19:29:39.787Z,66.98
2022-09-13T19:32:10.465Z,67.22
2022-09-13T19:34:40.987Z,67.46
2022-09-13T19:37:12.071Z,67.61
2022-09-13T19:39:43.176Z,67.73
2022-09-13T19:42:13.997Z,67.89
2022-09-13T19:44:44.614Z,67.95
2022-09-13T19:48:02.268Z,68.16
2022-09-13T19:50:08.173Z,68.31
2022-09-13T19:52:38.559Z,68.47
2022-09-13T19:55:10.324Z,68.70
2022-09-13T19:57:44.801Z,68.78
2022-09-13T20:00:16.847Z,68.96
2022-09-13T20:02:50.183Z,69.05
2022-09-13T20:05:23.655Z,69.12
2022-09-13T20:07:56.622Z,69.32
2022-09-13T20:10:27.058Z,69.36
2022-09-13T20:12:58.115Z,69.61
2022-09-13T20:15:31.263Z,69.64
2022-09-13T20:18:01.861Z,69.77
2022-09-13T20:20:35.359Z,69.94
2022-09-13T20:23:05.631Z,70.07
2022-09-13T20:25:36.943Z,70.28
2022-09-13T20:28:07.359Z,70.40
2022-09-13T20:30:38.169Z,70.50
2022-09-13T20:33:10.176Z,70.55
2022-09-13T20:35:41.394Z,70.69
2022-09-13T20:38:11.718Z,70.83
2022-09-13T20:40:42.585Z,70.98
2022-09-13T20:43:15.691Z,71.06
2022-09-13T20:45:46.010Z,71.29
2022-09-13T20:48:18.178Z,71.31
2022-09-13T20:50:58.567Z,71.51
2022-09-13T20:53:29.601Z,71.76
2022-09-13T20:56:05.471Z,71.93
2022-09-13T20:58:35.862Z,71.99
2022-09-13T21:01:08.017Z,71.90
2022-09-13T21:03:40.212Z,71.88
2022-09-13T21:06:11.753Z,71.84
2022-09-13T21:08:43.339Z,71.78
2022-09-13T21:11:16.494Z,72.02
2022-09-13T21:13:48.659Z,72.15
2022-09-13T21:16:21.878Z,72.22
2022-09-13T21:18:55.709Z,72.32
2022-09-13T21:21:28.228Z,72.49
2022-09-13T21:24:03.657Z,72.84
2022-09-13T21:26:34.490Z,73.31
2022-09-13T21:29:05.305Z,73.60
2022-09-13T21:31:35.795Z,73.98
2022-09-13T21:34:08.615Z,74.10
2022-09-13T21:36:39.368Z,74.27
2022-09-13T21:39:10.460Z,74.31
2022-09-13T21:41:41.804Z,74.52
2022-09-13T21:44:12.549Z,74.59
2022-09-13T21:46:45.969Z,74.63
2022-09-13T21:49:17.323Z,74.85
2022-09-13T21:51:49.867Z,75.15
2022-09-13T21:54:21.923Z,75.23
2022-09-13T21:56:54.772Z,75.30
2022-09-13T21:59:25.889Z,75.52
2022-09-13T22:01:56.535Z,75.52
2022-09-13T22:04:28.223Z,75.43
2022-09-13T22:06:59.727Z,75.63
2022-09-13T22:09:30.077Z,75.79
2022-09-13T22:12:00.880Z,75.95
2022-09-13T22:14:31.605Z,76.09
2022-09-13T22:17:04.864Z,76.22
2022-09-13T22:19:35.196Z,76.29
2022-09-13T22:22:06.450Z,76.45
2022-09-13T22:24:36.828Z,76.43
2022-09-13T22:27:08.564Z,76.34
2022-09-13T22:29:40.448Z,76.25
2022-09-13T22:32:11.333Z,76.16
2022-09-13T22:34:41.639Z,76.22
2022-09-13T22:37:12.629Z,76.40
2022-09-13T22:39:42.952Z,76.52
2022-09-13T22:42:16.246Z,76.61
2022-09-13T22:44:46.498Z,76.58
2022-09-13T22:47:16.773Z,76.56
2022-09-13T22:49:47.018Z,76.62
2022-09-13T22:52:17.365Z,76.51
2022-09-13T22:54:50.807Z,76.65
2022-09-13T22:57:21.061Z,76.82
2022-09-13T22:59:51.303Z,76.99
2022-09-13T23:02:21.537Z,77.09
2022-09-13T23:04:51.768Z,77.18
2022-09-13T23:07:22.047Z,77.47
2022-09-13T23:09:52.461Z,77.62
2022-09-13T23:12:23.324Z,77.73
2022-09-13T23:14:53.554Z,77.85
2022-09-13T23:17:24.116Z,77.91
2022-09-13T23:19:54.830Z,78.11
2022-09-13T23:22:25.169Z,78.15
2022-09-13T23:24:55.421Z,78.24
2022-09-13T23:27:25.765Z,78.31
2022-09-13T23:29:55.970Z,78.40
2022-09-13T23:32:26.226Z,78.49
2022-09-13T23:34:56.480Z,78.64
2022-09-13T23:37:30.658Z,78.72
2022-09-13T23:40:01.864Z,78.94
2022-09-13T23:42:32.355Z,79.07
2022-09-13T23:45:02.605Z,79.26
2022-09-13T23:47:32.871Z,79.41
2022-09-13T23:50:03.128Z,79.45
2022-09-13T23:52:33.475Z,79.64
2022-09-13T23:55:06.752Z,79.77
2022-09-13T23:57:37.043Z,79.76
